createdAt,value
2023-05-09T00:00:13.706Z,32.55
2023-05-09T00:01:47.175Z,34.10
2023-05-09T00:03:18.878Z,32.30
2023-05-09T00:04:51.582Z,41.22
2023-05-09T00:06:23.293Z,52.67
2023-05-09T00:07:54.921Z,43.08
2023-05-09T00:09:26.597Z,39.17
2023-05-09T00:10:58.259Z,38.47
2023-05-09T00:12:29.912Z,42.70
2023-05-09T00:14:02.480Z,34.97
2023-05-09T00:15:34.175Z,47.83
2023-05-09T00:17:05.780Z,68.13
2023-05-09T00:18:37.944Z,40.28
2023-05-09T00:20:12.316Z,34.63
2023-05-09T00:21:44.350Z,47.10
2023-05-09T00:23:16.748Z,35.03
2023-05-09T00:24:48.943Z,34.55
2023-05-09T00:26:21.750Z,43.53
2023-05-09T00:27:53.405Z,41.50
2023-05-09T00:29:24.988Z,29.20
2023-05-09T00:30:57.105Z,32.90
2023-05-09T00:32:29.253Z,38.90
2023-05-09T00:34:01.001Z,33.25
2023-05-09T00:35:32.979Z,34.83
2023-05-09T00:37:04.594Z,37.75
2023-05-09T00:38:36.344Z,35.90
2023-05-09T00:40:09.232Z,33.50
2023-05-09T00:41:41.056Z,28.30
2023-05-09T00:43:12.734Z,30.98
2023-05-09T00:44:44.320Z,28.55
2023-05-09T00:46:15.946Z,30.90
2023-05-09T00:47:47.897Z,34.72
2023-05-09T00:49:20.057Z,29.98
2023-05-09T00:50:53.070Z,33.60
2023-05-09T00:52:26.022Z,33.92
2023-05-09T00:53:58.513Z,31.90
2023-05-09T00:55:30.262Z,30.67
2023-05-09T00:57:01.814Z,29.48
2023-05-09T00:58:33.412Z,31.65
2023-05-09T01:00:06.204Z,32.83
2023-05-09T01:01:37.889Z,29.25
2023-05-09T01:03:10.103Z,27.65
2023-05-09T01:04:42.182Z,30.30
2023-05-09T01:06:16.921Z,30.60
2023-05-09T01:08:10.467Z,27.13
2023-05-09T01:10:01.714Z,31.27
2023-05-09T01:11:42.547Z,27.10
2023-05-09T01:13:24.211Z,36.22
2023-05-09T01:15:17.309Z,34.30
2023-05-09T01:17:01.881Z,30.23
2023-05-09T01:19:12.379Z,29.08
2023-05-09T01:20:49.876Z,27.08
2023-05-09T01:22:26.780Z,27.10
2023-05-09T01:24:22.686Z,26.88
2023-05-09T01:26:01.967Z,26.77
2023-05-09T01:27:48.536Z,26.73
2023-05-09T01:29:44.667Z,29.73
2023-05-09T01:31:17.364Z,26.48
2023-05-09T01:32:52.151Z,34.72
2023-05-09T01:34:28.599Z,30.05
2023-05-09T01:36:09.801Z,30.50
2023-05-09T01:37:44.650Z,36.28
2023-05-09T01:39:18.068Z,38.97
2023-05-09T01:40:54.392Z,41.63
2023-05-09T01:42:30.971Z,32.20
2023-05-09T01:44:05.201Z,41.92
2023-05-09T01:45:39.002Z,40.53
2023-05-09T01:47:11.744Z,34.85
2023-05-09T01:48:45.057Z,33.35
2023-05-09T01:50:18.678Z,32.63
2023-05-09T01:51:51.244Z,34.22
2023-05-09T01:53:24.695Z,33.40
2023-05-09T01:54:57.794Z,33.20
2023-05-09T01:56:31.778Z,34.40
2023-05-09T01:58:06.194Z,33.83
2023-05-09T01:59:41.991Z,39.38
2023-05-09T02:02:46.777Z,36.72
2023-05-09T02:04:20.882Z,41.13
2023-05-09T02:05:54.612Z,33.08
2023-05-09T02:07:29.330Z,38.17
2023-05-09T02:09:02.088Z,34.30
2023-05-09T02:10:35.356Z,29.35
2023-05-09T02:12:07.147Z,31.63
2023-05-09T02:13:39.162Z,34.20
2023-05-09T02:15:11.185Z,31.23
2023-05-09T02:16:45.806Z,32.88
2023-05-09T02:18:17.415Z,30.73
2023-05-09T02:19:49.001Z,28.88
2023-05-09T02:21:20.632Z,26.50
2023-05-09T02:22:52.351Z,30.42
2023-05-09T02:24:24.634Z,25.95
2023-05-09T02:25:56.624Z,28.35
2023-05-09T02:27:28.500Z,27.95
2023-05-09T02:29:02.836Z,28.25
2023-05-09T02:30:41.994Z,27.45
2023-05-09T02:32:20.782Z,25.92
2023-05-09T02:33:53.445Z,27.23
2023-05-09T02:35:27.402Z,28.10
2023-05-09T02:36:59.494Z,26.77
2023-05-09T02:38:32.633Z,26.65
2023-05-09T02:40:07.656Z,25.73
2023-05-09T02:41:39.406Z,27.30
2023-05-09T02:43:11.181Z,26.60
2023-05-09T02:44:42.762Z,25.23
2023-05-09T02:46:14.410Z,27.60
2023-05-09T02:47:46.093Z,25.05
2023-05-09T02:49:31.447Z,25.90
2023-05-09T02:51:04.853Z,24.63
2023-05-09T02:52:36.504Z,26.08
2023-05-09T02:54:08.936Z,26.83
2023-05-09T02:55:40.527Z,28.05
2023-05-09T02:57:12.188Z,27.13
2023-05-09T02:58:44.297Z,30.67
2023-05-09T03:00:18.005Z,28.77
2023-05-09T03:01:49.681Z,32.15
2023-05-09T03:03:23.354Z,27.83
2023-05-09T03:04:56.567Z,27.95
2023-05-09T03:06:28.250Z,28.20
2023-05-09T03:07:59.866Z,26.83
2023-05-09T03:09:31.618Z,27.05
2023-05-09T03:11:03.252Z,29.92
2023-05-09T03:12:35.300Z,30.95
2023-05-09T03:14:08.456Z,32.80
2023-05-09T03:15:40.085Z,34.15
2023-05-09T03:17:12.946Z,32.47
2023-05-09T03:18:44.656Z,34.95
2023-05-09T03:20:16.390Z,26.25
2023-05-09T03:21:48.079Z,31.25
2023-05-09T03:23:20.011Z,27.17
2023-05-09T03:24:51.711Z,31.83
2023-05-09T03:26:23.473Z,32.08
2023-05-09T03:27:55.046Z,30.52
2023-05-09T03:29:27.647Z,29.90
2023-05-09T03:30:59.255Z,27.92
2023-05-09T03:32:32.420Z,28.92
2023-05-09T03:34:04.010Z,30.52
2023-05-09T03:35:35.652Z,27.25
2023-05-09T03:37:07.473Z,29.30
2023-05-09T03:38:43.410Z,31.52
2023-05-09T03:40:15.333Z,30.13
2023-05-09T03:41:59.130Z,28.50
2023-05-09T03:43:30.813Z,32.03
2023-05-09T03:45:02.384Z,27.90
2023-05-09T03:46:34.107Z,34.53
2023-05-09T03:48:08.560Z,28.48
2023-05-09T03:49:42.808Z,26.48
2023-05-09T03:51:16.431Z,27.40
2023-05-09T03:52:50.554Z,28.88
2023-05-09T03:54:22.356Z,27.83
2023-05-09T03:55:55.767Z,27.05
2023-05-09T03:57:27.980Z,23.75
2023-05-09T03:59:01.585Z,23.63
2023-05-09T04:00:33.636Z,26.23
2023-05-09T04:02:13.123Z,23.20
2023-05-09T04:03:45.053Z,21.75
2023-05-09T04:05:19.353Z,19.38
2023-05-09T04:06:51.750Z,25.05
2023-05-09T04:08:23.692Z,24.20
2023-05-09T04:09:58.587Z,22.83
2023-05-09T04:11:30.619Z,23.60
2023-05-09T04:13:03.413Z,33.40
2023-05-09T04:14:35.506Z,24.60
2023-05-09T04:16:07.303Z,24.80
2023-05-09T04:17:39.547Z,21.58
2023-05-09T04:19:11.237Z,23.70
2023-05-09T04:20:43.191Z,22.27
2023-05-09T04:22:15.236Z,20.73
2023-05-09T04:23:46.917Z,21.17
2023-05-09T04:25:20.207Z,22.88
2023-05-09T04:26:52.756Z,23.27
2023-05-09T04:28:27.312Z,19.33
2023-05-09T04:30:00.291Z,18.70
2023-05-09T04:31:32.039Z,24.17
2023-05-09T04:33:04.452Z,17.95
2023-05-09T04:34:36.056Z,19.73
2023-05-09T04:36:14.012Z,22.67
2023-05-09T04:37:45.691Z,24.05
2023-05-09T04:39:17.667Z,21.85
2023-05-09T04:40:58.610Z,25.92
2023-05-09T04:42:33.386Z,21.10
2023-05-09T04:44:05.446Z,23.65
2023-05-09T04:45:37.104Z,22.50
2023-05-09T04:47:08.750Z,19.35
2023-05-09T04:48:40.609Z,23.83
2023-05-09T04:50:12.400Z,19.33
2023-05-09T04:51:44.018Z,20.13
2023-05-09T04:53:15.632Z,20.85
2023-05-09T04:54:47.400Z,21.25
2023-05-09T04:56:22.638Z,23.27
2023-05-09T04:57:54.789Z,24.58
2023-05-09T04:59:26.413Z,23.92
2023-05-09T05:00:58.109Z,24.83
2023-05-09T05:02:30.921Z,24.35
2023-05-09T05:04:02.560Z,24.77
2023-05-09T05:05:37.605Z,25.73
2023-05-09T05:07:10.191Z,28.52
2023-05-09T05:08:41.872Z,23.65
2023-05-09T05:10:13.911Z,24.20
2023-05-09T05:11:58.739Z,27.50
2023-05-09T05:13:32.926Z,27.75
2023-05-09T05:15:06.824Z,31.42
2023-05-09T05:16:39.185Z,32.63
2023-05-09T05:18:11.208Z,30.48
2023-05-09T05:19:43.505Z,34.38
2023-05-09T05:21:16.407Z,32.50
2023-05-09T05:22:48.901Z,27.98
2023-05-09T05:24:20.770Z,27.50
2023-05-09T05:25:52.786Z,29.58
2023-05-09T05:27:24.586Z,28.70
2023-05-09T05:28:57.217Z,26.42
2023-05-09T05:30:32.124Z,28.17
2023-05-09T05:32:05.971Z,30.48
2023-05-09T05:33:37.727Z,26.50
2023-05-09T05:35:13.410Z,25.13
2023-05-09T05:38:17.362Z,28.77
2023-05-09T05:41:24.946Z,25.23
2023-05-09T05:42:57.093Z,28.58
2023-05-09T05:44:29.357Z,23.17
2023-05-09T05:46:01.235Z,28.38
2023-05-09T05:47:35.677Z,26.40
2023-05-09T05:49:08.042Z,32.78
2023-05-09T05:50:39.902Z,27.25
2023-05-09T05:52:11.548Z,25.38
2023-05-09T05:53:43.215Z,28.17
2023-05-09T05:55:15.066Z,29.13
2023-05-09T05:56:47.026Z,31.65
2023-05-09T05:58:18.670Z,27.20
2023-05-09T05:59:51.225Z,27.73
2023-05-09T06:01:22.865Z,26.80
2023-05-09T06:02:55.160Z,30.27
2023-05-09T06:04:32.539Z,32.65
2023-05-09T06:06:04.680Z,31.38
2023-05-09T06:07:36.800Z,31.95
2023-05-09T06:09:08.672Z,27.80
2023-05-09T06:10:40.788Z,25.98
2023-05-09T06:12:16.426Z,26.98
2023-05-09T06:13:47.978Z,32.08
2023-05-09T06:15:19.543Z,28.23
2023-05-09T06:16:54.345Z,24.25
2023-05-09T06:18:26.178Z,24.60
2023-05-09T06:19:58.822Z,27.00
2023-05-09T06:21:30.536Z,21.70
2023-05-09T06:23:02.142Z,28.27
2023-05-09T06:24:36.299Z,27.17
2023-05-09T06:26:08.500Z,29.45
2023-05-09T06:27:40.745Z,27.33
2023-05-09T06:29:14.255Z,25.85
2023-05-09T06:30:45.978Z,29.38
2023-05-09T06:32:18.772Z,25.67
2023-05-09T06:33:50.946Z,24.15
2023-05-09T06:35:23.044Z,26.75
2023-05-09T06:36:54.926Z,23.00
2023-05-09T06:38:26.942Z,26.27
2023-05-09T06:39:58.768Z,28.35
2023-05-09T06:41:30.988Z,26.58
2023-05-09T06:43:02.782Z,27.27
2023-05-09T06:44:34.873Z,25.25
2023-05-09T06:46:07.444Z,26.63
2023-05-09T06:47:39.349Z,23.98
2023-05-09T06:49:11.100Z,25.40
2023-05-09T06:50:42.769Z,26.45
2023-05-09T06:52:15.783Z,23.42
2023-05-09T06:53:48.017Z,23.95
2023-05-09T06:55:19.688Z,26.08
2023-05-09T06:56:51.314Z,27.15
2023-05-09T06:58:23.265Z,26.80
2023-05-09T06:59:54.827Z,22.90
2023-05-09T07:01:27.035Z,24.67
2023-05-09T07:02:58.821Z,25.48
2023-05-09T07:04:30.519Z,23.38
2023-05-09T07:06:02.034Z,25.85
2023-05-09T07:07:33.559Z,27.35
2023-05-09T07:09:05.071Z,26.60
2023-05-09T07:10:36.760Z,28.95
2023-05-09T07:12:08.541Z,24.98
2023-05-09T07:13:40.127Z,26.13
2023-05-09T07:15:11.977Z,26.95
2023-05-09T07:16:43.768Z,26.15
2023-05-09T07:18:15.402Z,26.58
2023-05-09T07:19:46.963Z,27.45
2023-05-09T07:21:18.516Z,27.00
2023-05-09T07:22:50.149Z,29.02
2023-05-09T07:24:21.720Z,30.25
2023-05-09T07:25:59.595Z,26.58
2023-05-09T07:27:31.171Z,28.00
2023-05-09T07:29:02.965Z,26.20
2023-05-09T07:30:34.570Z,26.63
2023-05-09T07:32:06.284Z,28.20
2023-05-09T07:33:38.164Z,24.50
2023-05-09T07:35:09.859Z,29.08
2023-05-09T07:36:41.413Z,29.00
2023-05-09T07:38:13.279Z,28.08
2023-05-09T07:39:44.945Z,32.22
2023-05-09T07:41:16.735Z,28.63
2023-05-09T07:42:50.011Z,26.77
2023-05-09T07:44:22.335Z,31.98
2023-05-09T07:45:54.075Z,28.98
2023-05-09T07:47:25.986Z,29.70
2023-05-09T07:48:57.607Z,28.92
2023-05-09T07:50:29.658Z,26.80
2023-05-09T07:52:02.065Z,25.25
2023-05-09T07:53:33.911Z,24.10
2023-05-09T07:55:06.868Z,26.40
2023-05-09T07:56:38.590Z,25.13
2023-05-09T07:58:10.351Z,26.17
2023-05-09T07:59:42.486Z,26.55
2023-05-09T08:01:14.149Z,28.80
2023-05-09T08:02:45.871Z,24.52
2023-05-09T08:04:17.585Z,25.40
2023-05-09T08:05:49.516Z,25.02
2023-05-09T08:07:21.224Z,23.52
2023-05-09T08:08:52.826Z,24.20
2023-05-09T08:10:24.983Z,24.65
2023-05-09T08:11:56.577Z,23.50
2023-05-09T08:13:28.282Z,26.23
2023-05-09T08:14:59.872Z,23.38
2023-05-09T08:16:31.538Z,25.27
2023-05-09T08:18:03.255Z,23.77
2023-05-09T08:19:34.880Z,21.00
2023-05-09T08:21:06.730Z,22.38
2023-05-09T08:22:39.235Z,24.98
2023-05-09T08:24:10.787Z,24.75
2023-05-09T08:25:43.093Z,21.48
2023-05-09T08:27:15.483Z,20.38
2023-05-09T08:28:47.109Z,19.55
2023-05-09T08:30:18.836Z,21.67
2023-05-09T08:31:51.277Z,23.40
2023-05-09T08:33:23.527Z,21.70
2023-05-09T08:34:55.196Z,21.30
2023-05-09T08:36:26.766Z,18.40
2023-05-09T08:37:58.346Z,21.15
2023-05-09T08:39:30.704Z,18.88
2023-05-09T08:41:02.922Z,18.77
2023-05-09T08:42:37.424Z,22.48
2023-05-09T08:44:09.268Z,20.05
2023-05-09T08:45:52.355Z,25.90
2023-05-09T08:47:24.835Z,20.92
2023-05-09T08:48:57.349Z,22.90
2023-05-09T08:50:29.201Z,23.92
2023-05-09T08:52:01.529Z,22.50
2023-05-09T08:53:34.081Z,26.42
2023-05-09T08:55:06.307Z,21.20
2023-05-09T08:56:38.157Z,27.15
2023-05-09T08:58:09.764Z,24.02
2023-05-09T08:59:42.468Z,21.20
2023-05-09T09:01:14.457Z,24.13
2023-05-09T09:02:46.595Z,22.00
2023-05-09T09:04:18.288Z,23.50
2023-05-09T09:05:52.772Z,21.23
2023-05-09T09:07:27.669Z,22.92
2023-05-09T09:09:01.039Z,20.38
2023-05-09T09:10:33.529Z,22.30
2023-05-09T09:12:09.859Z,20.73
2023-05-09T09:13:43.709Z,19.90
2023-05-09T09:15:20.133Z,21.20
2023-05-09T09:16:55.182Z,21.52
2023-05-09T09:18:30.536Z,18.20
2023-05-09T09:20:05.667Z,16.27
2023-05-09T09:21:38.611Z,17.40
2023-05-09T09:23:13.087Z,16.83
2023-05-09T09:24:45.288Z,16.90
2023-05-09T09:26:16.966Z,15.30
2023-05-09T09:27:48.567Z,14.85
2023-05-09T09:29:21.070Z,12.18
2023-05-09T09:30:52.732Z,13.63
2023-05-09T09:32:33.642Z,16.40
2023-05-09T09:34:05.241Z,13.88
2023-05-09T09:35:40.369Z,10.90
2023-05-09T09:37:23.212Z,9.85
2023-05-09T09:39:02.358Z,9.68
2023-05-09T09:40:33.979Z,11.43
2023-05-09T09:42:12.192Z,10.73
2023-05-09T09:43:46.769Z,11.00
2023-05-09T09:45:25.284Z,11.95
2023-05-09T09:46:57.057Z,11.25
2023-05-09T09:48:34.012Z,11.43
2023-05-09T09:50:13.152Z,10.70
2023-05-09T09:51:45.396Z,11.00
2023-05-09T09:53:20.301Z,9.35
2023-05-09T09:54:56.564Z,9.93
2023-05-09T09:56:46.162Z,9.63
2023-05-09T09:58:25.158Z,11.13
2023-05-09T10:00:00.836Z,9.23
2023-05-09T10:01:32.469Z,9.52
2023-05-09T10:03:04.313Z,7.50
2023-05-09T10:04:41.799Z,8.65
2023-05-09T10:06:15.217Z,8.73
2023-05-09T10:07:50.400Z,7.97
2023-05-09T10:09:23.771Z,9.02
2023-05-09T10:10:55.524Z,8.93
2023-05-09T10:12:27.396Z,9.35
2023-05-09T10:13:59.020Z,18.70
2023-05-09T10:15:41.392Z,13.88
2023-05-09T10:17:19.853Z,10.82
2023-05-09T10:18:52.703Z,11.95
2023-05-09T10:20:25.522Z,10.95
2023-05-09T10:22:05.584Z,10.27
2023-05-09T10:23:38.386Z,8.38
2023-05-09T10:25:20.609Z,9.57
2023-05-09T10:26:56.153Z,9.30
2023-05-09T10:28:31.797Z,7.57
2023-05-09T10:30:15.515Z,9.48
2023-05-09T10:31:48.746Z,9.95
2023-05-09T10:33:27.803Z,7.60
2023-05-09T10:35:05.156Z,8.38
2023-05-09T10:36:37.616Z,9.20
2023-05-09T10:38:12.441Z,6.63
2023-05-09T10:39:44.283Z,7.82
2023-05-09T10:41:21.865Z,8.85
2023-05-09T10:42:53.901Z,8.65
2023-05-09T10:44:27.071Z,7.35
2023-05-09T10:45:59.192Z,8.95
2023-05-09T10:47:33.223Z,8.10
2023-05-09T10:49:05.112Z,8.93
2023-05-09T10:50:40.248Z,8.90
2023-05-09T10:52:12.397Z,6.38
2023-05-09T10:53:44.198Z,9.18
2023-05-09T10:55:16.111Z,7.45
2023-05-09T10:56:47.793Z,7.93
2023-05-09T10:58:29.893Z,7.13
2023-05-09T11:00:01.562Z,7.78
2023-05-09T11:01:35.379Z,6.25
2023-05-09T11:03:10.545Z,6.78
2023-05-09T11:04:42.337Z,6.40
2023-05-09T11:06:40.835Z,6.97
2023-05-09T11:08:26.723Z,7.78
2023-05-09T11:10:09.192Z,7.28
2023-05-09T11:11:51.505Z,7.25
2023-05-09T11:13:25.694Z,8.60
2023-05-09T11:15:06.348Z,7.85
2023-05-09T11:16:57.763Z,7.57
2023-05-09T11:18:30.732Z,10.30
2023-05-09T11:20:08.781Z,6.28
2023-05-09T11:22:00.885Z,6.40
2023-05-09T11:23:33.021Z,8.18
2023-05-09T11:25:05.813Z,10.57
2023-05-09T11:26:37.458Z,9.73
2023-05-09T11:28:09.275Z,6.70
2023-05-09T11:29:46.515Z,8.27
2023-05-09T11:31:19.050Z,7.72
2023-05-09T11:32:51.798Z,8.05
2023-05-09T11:34:24.109Z,7.60
2023-05-09T11:36:29.556Z,8.25
2023-05-09T11:38:02.059Z,9.60
2023-05-09T11:39:33.639Z,8.55
2023-05-09T11:41:05.955Z,9.05
2023-05-09T11:42:43.647Z,8.07
2023-05-09T11:44:17.072Z,24.38
2023-05-09T11:45:49.023Z,10.18
2023-05-09T11:47:21.785Z,8.15
2023-05-09T11:48:53.744Z,11.98
2023-05-09T11:50:25.625Z,9.35
2023-05-09T11:51:59.740Z,11.88
2023-05-09T11:53:32.365Z,10.60
2023-05-09T11:55:08.960Z,10.02
2023-05-09T11:56:42.038Z,9.57
2023-05-09T11:58:13.890Z,7.80
2023-05-09T11:59:46.454Z,6.93
2023-05-09T12:01:19.337Z,8.95
2023-05-09T12:02:53.434Z,10.82
2023-05-09T12:04:25.421Z,8.75
2023-05-09T12:05:57.156Z,8.90
2023-05-09T12:07:29.009Z,11.15
2023-05-09T12:09:02.285Z,7.95
2023-05-09T12:10:40.946Z,6.07
2023-05-09T12:12:14.535Z,4.72
2023-05-09T12:13:49.121Z,5.80
2023-05-09T12:15:21.793Z,5.35
2023-05-09T12:16:53.750Z,5.50
2023-05-09T12:18:25.334Z,3.75
2023-05-09T12:19:59.899Z,5.82
2023-05-09T12:21:31.595Z,6.18
2023-05-09T12:23:03.485Z,4.95
2023-05-09T12:24:36.874Z,3.92
2023-05-09T12:26:08.598Z,4.10
2023-05-09T12:27:41.758Z,4.82
2023-05-09T12:29:13.716Z,3.70
2023-05-09T12:30:45.707Z,7.22
2023-05-09T12:32:18.601Z,5.80
2023-05-09T12:33:50.391Z,3.80
2023-05-09T12:35:23.543Z,4.35
2023-05-09T12:36:55.137Z,4.78
2023-05-09T12:38:27.078Z,2.90
2023-05-09T12:40:12.604Z,3.92
2023-05-09T12:41:57.385Z,3.92
2023-05-09T12:43:34.065Z,3.28
2023-05-09T12:45:08.743Z,3.33
2023-05-09T12:46:40.467Z,4.30
2023-05-09T12:48:13.641Z,3.45
2023-05-09T12:49:50.004Z,3.85
2023-05-09T12:51:22.493Z,3.75
2023-05-09T12:53:02.655Z,3.47
2023-05-09T12:54:35.398Z,5.63
2023-05-09T12:56:34.157Z,4.57
2023-05-09T12:58:05.804Z,3.75
2023-05-09T12:59:37.461Z,6.93
2023-05-09T13:01:09.531Z,5.40
2023-05-09T13:02:42.176Z,6.07
2023-05-09T13:04:14.028Z,5.30
2023-05-09T13:05:54.512Z,3.78
2023-05-09T13:07:26.359Z,4.40
2023-05-09T13:09:02.793Z,7.28
2023-05-09T13:10:34.719Z,5.25
2023-05-09T13:12:09.981Z,8.07
2023-05-09T13:13:42.495Z,6.97
2023-05-09T13:15:19.940Z,8.77
2023-05-09T13:16:51.743Z,5.43
2023-05-09T13:18:24.446Z,7.95
2023-05-09T13:19:56.561Z,6.05
2023-05-09T13:21:28.159Z,6.45
2023-05-09T13:22:59.926Z,8.65
2023-05-09T13:24:31.612Z,8.18
2023-05-09T13:26:03.619Z,9.75
2023-05-09T13:27:35.792Z,11.75
2023-05-09T13:29:07.878Z,9.13
2023-05-09T13:30:39.740Z,9.45
2023-05-09T13:32:11.436Z,8.63
2023-05-09T13:33:42.997Z,7.88
2023-05-09T13:35:15.346Z,9.13
2023-05-09T13:36:46.901Z,6.75
2023-05-09T13:38:18.545Z,7.90
2023-05-09T13:39:50.227Z,7.22
2023-05-09T13:41:23.934Z,5.78
2023-05-09T13:42:55.902Z,6.35
2023-05-09T13:44:28.926Z,6.65
2023-05-09T13:46:00.810Z,6.18
2023-05-09T13:47:32.718Z,5.93
2023-05-09T13:49:04.495Z,13.38
2023-05-09T13:50:36.261Z,6.25
2023-05-09T13:52:09.011Z,7.05
2023-05-09T13:53:40.860Z,7.28
2023-05-09T13:55:12.522Z,7.18
2023-05-09T13:56:44.289Z,6.78
2023-05-09T13:58:16.056Z,9.05
2023-05-09T13:59:47.698Z,6.85
2023-05-09T14:01:19.443Z,5.15
2023-05-09T14:02:51.436Z,8.30
2023-05-09T14:04:23.160Z,6.32
2023-05-09T14:05:54.760Z,7.20
2023-05-09T14:07:26.522Z,6.15
2023-05-09T14:08:58.200Z,8.45
2023-05-09T14:10:29.803Z,5.82
2023-05-09T14:12:01.596Z,6.07
2023-05-09T14:13:33.300Z,5.95
2023-05-09T14:15:07.102Z,5.60
2023-05-09T14:16:38.869Z,5.68
2023-05-09T14:18:11.441Z,5.38
2023-05-09T14:19:44.083Z,7.65
2023-05-09T14:21:15.684Z,6.60
2023-05-09T14:22:48.216Z,5.38
2023-05-09T14:24:19.781Z,5.80
2023-05-09T14:25:51.768Z,7.20
2023-05-09T14:27:24.115Z,7.68
2023-05-09T14:28:55.756Z,6.93
2023-05-09T14:30:27.981Z,5.90
2023-05-09T14:32:00.118Z,6.85
2023-05-09T14:33:32.829Z,6.57
2023-05-09T14:35:04.777Z,6.00
2023-05-09T14:36:37.438Z,7.03
2023-05-09T14:38:09.878Z,8.00
2023-05-09T14:39:42.567Z,6.97
2023-05-09T14:41:15.254Z,6.00
2023-05-09T14:42:47.605Z,4.07
2023-05-09T14:44:19.757Z,7.00
2023-05-09T14:45:51.736Z,8.07
2023-05-09T14:47:23.315Z,6.53
2023-05-09T14:48:57.429Z,5.45
2023-05-09T14:50:29.545Z,5.88
2023-05-09T14:52:01.241Z,5.38
2023-05-09T14:53:35.854Z,5.28
2023-05-09T14:55:08.239Z,5.40
2023-05-09T14:56:40.339Z,6.40
2023-05-09T14:58:13.904Z,4.40
2023-05-09T14:59:45.664Z,5.80
2023-05-09T15:01:17.325Z,5.25
2023-05-09T15:02:49.635Z,6.30
2023-05-09T15:04:21.460Z,4.95
2023-05-09T15:05:53.397Z,8.32
2023-05-09T15:07:25.003Z,5.47
2023-05-09T15:08:56.750Z,4.40
2023-05-09T15:10:28.492Z,8.65
2023-05-09T15:12:00.259Z,6.40
2023-05-09T15:13:32.412Z,8.88
2023-05-09T15:15:15.327Z,7.35
2023-05-09T15:16:47.477Z,7.18
2023-05-09T15:18:20.169Z,4.90
2023-05-09T15:19:52.178Z,6.82
2023-05-09T15:21:24.849Z,7.28
2023-05-09T15:22:56.687Z,7.90
2023-05-09T15:24:28.431Z,6.13
2023-05-09T15:26:00.379Z,7.03
2023-05-09T15:27:32.147Z,7.53
2023-05-09T15:29:03.891Z,9.15
2023-05-09T15:30:38.342Z,6.75
2023-05-09T15:32:10.251Z,6.78
2023-05-09T15:33:42.037Z,8.15
2023-05-09T15:35:14.114Z,9.38
2023-05-09T15:36:46.279Z,7.97
2023-05-09T15:38:19.349Z,7.45
2023-05-09T15:39:51.313Z,6.65
2023-05-09T15:41:23.935Z,10.43
2023-05-09T15:42:56.036Z,7.32
2023-05-09T15:44:27.920Z,7.45
2023-05-09T15:45:59.664Z,7.28
2023-05-09T15:47:31.447Z,10.40
2023-05-09T15:49:03.322Z,11.30
2023-05-09T15:50:35.090Z,6.50
2023-05-09T15:52:07.976Z,6.35
2023-05-09T15:53:39.965Z,6.45
2023-05-09T15:55:13.078Z,7.05
2023-05-09T15:56:44.933Z,5.72
2023-05-09T15:58:17.337Z,7.78
2023-05-09T15:59:49.277Z,6.45
2023-05-09T16:01:21.277Z,8.85
2023-05-09T16:02:53.180Z,6.35
2023-05-09T16:04:24.871Z,5.38
2023-05-09T16:05:57.658Z,9.40
2023-05-09T16:07:31.106Z,8.05
2023-05-09T16:09:04.716Z,6.28
2023-05-09T16:10:36.671Z,5.80
2023-05-09T16:12:09.350Z,8.73
2023-05-09T16:13:41.082Z,7.25
2023-05-09T16:15:12.880Z,6.50
2023-05-09T16:16:44.738Z,11.55
2023-05-09T16:18:16.563Z,6.32
2023-05-09T16:19:48.435Z,10.35
2023-05-09T16:21:21.805Z,6.53
2023-05-09T16:22:53.731Z,5.55
2023-05-09T16:24:25.695Z,7.75
2023-05-09T16:25:57.569Z,5.78
2023-05-09T16:27:29.513Z,6.22
2023-05-09T16:29:01.421Z,9.20
2023-05-09T16:30:33.169Z,6.15
2023-05-09T16:32:05.247Z,6.75
2023-05-09T16:33:37.177Z,7.47
2023-05-09T16:35:09.245Z,9.75
2023-05-09T16:36:41.377Z,10.05
2023-05-09T16:38:13.732Z,6.80
2023-05-09T16:39:46.189Z,15.70
2023-05-09T16:41:17.916Z,10.57
2023-05-09T16:42:49.685Z,10.48
2023-05-09T16:44:21.897Z,10.02
2023-05-09T16:45:53.652Z,7.15
2023-05-09T16:47:25.702Z,8.05
2023-05-09T16:48:58.181Z,7.72
2023-05-09T16:50:30.079Z,9.68
2023-05-09T16:52:01.710Z,9.07
2023-05-09T16:53:33.432Z,6.55
2023-05-09T16:55:06.018Z,10.55
2023-05-09T16:56:37.980Z,9.15
2023-05-09T16:58:09.981Z,5.10
2023-05-09T16:59:41.950Z,6.28
2023-05-09T17:01:13.728Z,6.57
2023-05-09T17:02:45.663Z,6.88
2023-05-09T17:04:17.418Z,5.60
2023-05-09T17:05:49.202Z,5.93
2023-05-09T17:07:21.115Z,5.05
2023-05-09T17:08:53.420Z,4.35
2023-05-09T17:10:26.493Z,8.93
2023-05-09T17:11:58.933Z,9.35
2023-05-09T17:13:31.265Z,7.35
2023-05-09T17:15:03.433Z,8.93
2023-05-09T17:16:37.344Z,12.52
2023-05-09T17:18:09.870Z,6.03
2023-05-09T17:19:41.752Z,9.45
2023-05-09T17:21:16.999Z,6.80
2023-05-09T17:22:48.695Z,9.30
2023-05-09T17:24:20.361Z,8.07
2023-05-09T17:25:52.310Z,5.75
2023-05-09T17:27:24.299Z,8.05
2023-05-09T17:28:56.068Z,9.88
2023-05-09T17:30:27.858Z,4.30
2023-05-09T17:32:02.473Z,7.88
2023-05-09T17:33:34.390Z,7.65
2023-05-09T17:35:06.812Z,6.95
2023-05-09T17:36:38.498Z,5.57
2023-05-09T17:38:10.100Z,7.30
2023-05-09T17:39:42.649Z,5.35
2023-05-09T17:41:14.430Z,5.72
2023-05-09T17:42:46.088Z,6.45
2023-05-09T17:44:18.963Z,6.47
2023-05-09T17:45:52.412Z,5.88
2023-05-09T17:47:24.151Z,6.80
2023-05-09T17:48:56.635Z,8.63
2023-05-09T17:50:28.605Z,11.48
2023-05-09T17:52:00.472Z,7.22
2023-05-09T17:53:32.432Z,10.35
2023-05-09T17:55:04.454Z,6.20
2023-05-09T17:56:36.531Z,6.07
2023-05-09T17:58:08.524Z,14.52
2023-05-09T17:59:41.473Z,11.27
2023-05-09T18:01:13.528Z,5.93
2023-05-09T18:02:45.588Z,4.63
2023-05-09T18:04:17.282Z,6.22
2023-05-09T18:05:49.007Z,5.90
2023-05-09T18:07:21.000Z,6.25
2023-05-09T18:08:52.765Z,8.90
2023-05-09T18:10:24.422Z,8.25
2023-05-09T18:11:57.921Z,7.72
2023-05-09T18:13:29.781Z,7.28
2023-05-09T18:15:02.211Z,5.72
2023-05-09T18:16:34.735Z,5.45
2023-05-09T18:18:12.217Z,8.73
2023-05-09T18:19:45.844Z,7.25
2023-05-09T18:21:17.648Z,4.90
2023-05-09T18:22:49.815Z,4.63
2023-05-09T18:24:22.659Z,4.85
2023-05-09T18:25:55.738Z,6.68
2023-05-09T18:27:27.603Z,5.30
2023-05-09T18:28:59.381Z,4.25
2023-05-09T18:30:31.310Z,6.60
2023-05-09T18:32:03.740Z,5.53
2023-05-09T18:33:39.171Z,3.80
2023-05-09T18:35:11.439Z,4.85
2023-05-09T18:36:43.371Z,7.55
2023-05-09T18:38:15.463Z,4.35
2023-05-09T18:39:48.089Z,4.00
2023-05-09T18:41:20.198Z,7.00
2023-05-09T18:42:52.079Z,6.03
2023-05-09T18:44:24.052Z,4.53
2023-05-09T18:45:57.135Z,6.72
2023-05-09T18:47:29.451Z,4.55
2023-05-09T18:49:04.116Z,6.82
2023-05-09T18:50:36.632Z,6.38
2023-05-09T18:52:09.566Z,4.85
2023-05-09T18:53:43.095Z,4.80
2023-05-09T18:55:16.018Z,3.95
2023-05-09T18:56:48.275Z,5.18
2023-05-09T18:58:21.330Z,4.70
2023-05-09T18:59:54.225Z,7.35
2023-05-09T19:01:27.302Z,4.10
2023-05-09T19:02:59.965Z,5.25
2023-05-09T19:04:32.496Z,6.90
2023-05-09T19:06:05.311Z,5.90
2023-05-09T19:07:39.075Z,4.45
2023-05-09T19:09:12.922Z,6.30
2023-05-09T19:10:46.035Z,6.00
2023-05-09T19:12:19.742Z,4.97
2023-05-09T19:13:54.014Z,5.28
2023-05-09T19:15:27.268Z,5.45
2023-05-09T19:17:01.017Z,11.00
2023-05-09T19:18:34.376Z,5.78
2023-05-09T19:20:09.108Z,6.65
2023-05-09T19:21:42.505Z,3.83
2023-05-09T19:23:15.182Z,5.82
2023-05-09T19:24:48.828Z,6.03
2023-05-09T19:26:22.618Z,6.72
2023-05-09T19:27:54.677Z,4.97
2023-05-09T19:29:27.016Z,8.10
2023-05-09T19:31:00.027Z,7.55
2023-05-09T19:32:32.948Z,5.72
2023-05-09T19:34:06.607Z,8.63
2023-05-09T19:35:39.414Z,6.22
2023-05-09T19:37:12.532Z,7.03
2023-05-09T19:38:46.247Z,7.63
2023-05-09T19:40:20.110Z,5.70
2023-05-09T19:41:52.772Z,5.22
2023-05-09T19:43:24.683Z,7.38
2023-05-09T19:44:57.954Z,7.50
2023-05-09T19:46:30.710Z,6.65
2023-05-09T19:48:03.637Z,10.40
2023-05-09T19:49:35.787Z,8.65
2023-05-09T19:51:12.670Z,8.05
2023-05-09T19:52:46.010Z,5.70
2023-05-09T19:54:18.670Z,7.07
2023-05-09T19:55:51.004Z,6.22
2023-05-09T19:57:23.761Z,7.18
2023-05-09T19:58:57.006Z,9.10
2023-05-09T20:00:30.464Z,6.95
2023-05-09T20:02:03.697Z,4.85
2023-05-09T20:03:37.402Z,7.68
2023-05-09T20:05:10.531Z,7.45
2023-05-09T20:06:43.867Z,6.13
2023-05-09T20:08:17.817Z,5.65
2023-05-09T20:09:51.187Z,7.10
2023-05-09T20:11:23.986Z,8.65
2023-05-09T20:13:00.018Z,6.53
2023-05-09T20:14:39.761Z,7.30
2023-05-09T20:16:13.601Z,5.28
2023-05-09T20:17:48.007Z,8.25
2023-05-09T20:19:21.181Z,5.35
2023-05-09T20:20:55.894Z,7.32
2023-05-09T20:22:29.691Z,5.78
2023-05-09T20:24:02.100Z,7.78
2023-05-09T20:25:36.104Z,6.45